sensor_id;sensor_type;location;lat;lon;timestamp;temperature;humidity
13231;DHT22;6681;53.254;10.398;2023-02-10T00:00:51;2.10;99.90
13231;DHT22;6681;53.254;10.398;2023-02-10T00:03:16;2.20;99.90
13231;DHT22;6681;53.254;10.398;2023-02-10T00:05:42;2.30;99.90
13231;DHT22;6681;53.254;10.398;2023-02-10T00:08:08;2.20;99.90
13231;DHT22;6681;53.254;10.398;2023-02-10T00:10:33;2.20;99.90
13231;DHT22;6681;53.254;10.398;2023-02-10T00:12:59;2.40;99.90
13231;DHT22;6681;53.254;10.398;2023-02-10T00:15:24;3.20;99.90
13231;DHT22;6681;53.254;10.398;2023-02-10T00:17:50;3.60;99.90
13231;DHT22;6681;53.254;10.398;2023-02-10T00:20:16;3.50;99.90
13231;DHT22;6681;53.254;10.398;2023-02-10T00:22:41;2.20;99.90
13231;DHT22;6681;53.254;10.398;2023-02-10T00:25:07;3.00;99.90
13231;DHT22;6681;53.254;10.398;2023-02-10T00:27:32;4.00;99.90
13231;DHT22;6681;53.254;10.398;2023-02-10T00:29:58;2.60;99.90
13231;DHT22;6681;53.254;10.398;2023-02-10T00:32:24;2.60;99.90
13231;DHT22;6681;53.254;10.398;2023-02-10T00:34:49;2.30;99.90
13231;DHT22;6681;53.254;10.398;2023-02-10T00:37:15;2.30;99.90
13231;DHT22;6681;53.254;10.398;2023-02-10T00:39:40;2.60;99.90
13231;DHT22;6681;53.254;10.398;2023-02-10T00:42:06;2.30;99.90
13231;DHT22;6681;53.254;10.398;2023-02-10T00:44:32;2.40;99.90
13231;DHT22;6681;53.254;10.398;2023-02-10T00:47:00;2.40;99.90
13231;DHT22;6681;53.254;10.398;2023-02-10T00:49:26;2.30;99.90
13231;DHT22;6681;53.254;10.398;2023-02-10T00:51:51;2.40;99.90
13231;DHT22;6681;53.254;10.398;2023-02-10T00:54:17;2.30;99.90
13231;DHT22;6681;53.254;10.398;2023-02-10T00:56:42;2.70;99.90
13231;DHT22;6681;53.254;10.398;2023-02-10T00:59:10;2.40;99.90
13231;DHT22;6681;53.254;10.398;2023-02-10T01:01:37;2.60;99.90
13231;DHT22;6681;53.254;10.398;2023-02-10T01:04:02;4.20;99.90
13231;DHT22;6681;53.254;10.398;2023-02-10T01:06:28;2.30;99.90
13231;DHT22;6681;53.254;10.398;2023-02-10T01:08:54;2.30;99.90
13231;DHT22;6681;53.254;10.398;2023-02-10T01:11:19;2.30;99.90
13231;DHT22;6681;53.254;10.398;2023-02-10T01:13:45;2.30;99.90
13231;DHT22;6681;53.254;10.398;2023-02-10T01:16:13;2.30;99.90
13231;DHT22;6681;53.254;10.398;2023-02-10T01:18:40;2.40;99.90
13231;DHT22;6681;53.254;10.398;2023-02-10T01:21:10;2.30;99.90
13231;DHT22;6681;53.254;10.398;2023-02-10T01:23:37;2.30;99.90
13231;DHT22;6681;53.254;10.398;2023-02-10T01:26:03;2.40;99.90
13231;DHT22;6681;53.254;10.398;2023-02-10T01:28:29;2.50;99.90
13231;DHT22;6681;53.254;10.398;2023-02-10T01:30:54;2.40;99.90
13231;DHT22;6681;53.254;10.398;2023-02-10T01:33:20;2.40;99.90
13231;DHT22;6681;53.254;10.398;2023-02-10T01:35:46;2.40;99.90
13231;DHT22;6681;53.254;10.398;2023-02-10T01:38:11;2.40;99.90
13231;DHT22;6681;53.254;10.398;2023-02-10T01:40:37;2.40;99.90
13231;DHT22;6681;53.254;10.398;2023-02-10T01:43:13;4.00;99.90
13231;DHT22;6681;53.254;10.398;2023-02-10T01:45:39;2.40;99.90
13231;DHT22;6681;53.254;10.398;2023-02-10T01:48:06;2.40;99.90
13231;DHT22;6681;53.254;10.398;2023-02-10T01:50:42;2.40;99.90
13231;DHT22;6681;53.254;10.398;2023-02-10T01:53:10;3.50;99.90
13231;DHT22;6681;53.254;10.398;2023-02-10T01:55:46;2.40;99.90
13231;DHT22;6681;53.254;10.398;2023-02-10T01:58:14;2.40;99.90
13231;DHT22;6681;53.254;10.398;2023-02-10T02:00:40;2.40;99.90
13231;DHT22;6681;53.254;10.398;2023-02-10T02:03:07;2.40;99.90
13231;DHT22;6681;53.254;10.398;2023-02-10T02:08:15;2.40;99.90
13231;DHT22;6681;53.254;10.398;2023-02-10T02:28:12;2.50;99.90
13231;DHT22;6681;53.254;10.398;2023-02-10T02:31:31;2.50;99.90
13231;DHT22;6681;53.254;10.398;2023-02-10T02:34:01;2.50;99.90
13231;DHT22;6681;53.254;10.398;2023-02-10T02:36:32;2.60;99.90
13231;DHT22;6681;53.254;10.398;2023-02-10T02:39:01;2.60;99.90
13231;DHT22;6681;53.254;10.398;2023-02-10T02:41:27;2.60;99.90
13231;DHT22;6681;53.254;10.398;2023-02-10T02:43:54;2.60;99.90
13231;DHT22;6681;53.254;10.398;2023-02-10T02:51:39;2.60;99.90
13231;DHT22;6681;53.254;10.398;2023-02-10T02:54:37;2.70;99.90
13231;DHT22;6681;53.254;10.398;2023-02-10T02:58:00;3.40;99.90
13231;DHT22;6681;53.254;10.398;2023-02-10T03:00:24;2.70;99.90
13231;DHT22;6681;53.254;10.398;2023-02-10T03:02:52;2.70;99.90
13231;DHT22;6681;53.254;10.398;2023-02-10T03:05:23;2.70;99.90
13231;DHT22;6681;53.254;10.398;2023-02-10T03:07:53;2.80;99.90
13231;DHT22;6681;53.254;10.398;2023-02-10T03:10:18;2.70;99.90
13231;DHT22;6681;53.254;10.398;2023-02-10T03:12:44;2.70;99.90
13231;DHT22;6681;53.254;10.398;2023-02-10T03:15:10;2.70;99.90
13231;DHT22;6681;53.254;10.398;2023-02-10T03:17:36;2.70;99.90
13231;DHT22;6681;53.254;10.398;2023-02-10T03:20:02;3.70;99.90
13231;DHT22;6681;53.254;10.398;2023-02-10T03:22:28;2.70;99.90
13231;DHT22;6681;53.254;10.398;2023-02-10T03:24:54;2.80;99.90
13231;DHT22;6681;53.254;10.398;2023-02-10T03:27:29;2.80;99.90
13231;DHT22;6681;53.254;10.398;2023-02-10T03:29:55;2.80;99.90
13231;DHT22;6681;53.254;10.398;2023-02-10T03:32:20;2.70;99.90
13231;DHT22;6681;53.254;10.398;2023-02-10T03:34:47;2.70;99.90
13231;DHT22;6681;53.254;10.398;2023-02-10T03:37:12;4.40;99.90
13231;DHT22;6681;53.254;10.398;2023-02-10T03:39:38;2.70;99.90
13231;DHT22;6681;53.254;10.398;2023-02-10T03:42:04;2.60;99.90
13231;DHT22;6681;53.254;10.398;2023-02-10T03:44:30;2.60;99.90
13231;DHT22;6681;53.254;10.398;2023-02-10T03:46:56;2.60;99.90
13231;DHT22;6681;53.254;10.398;2023-02-10T03:49:22;2.60;99.90
13231;DHT22;6681;53.254;10.398;2023-02-10T03:51:48;2.60;99.90
13231;DHT22;6681;53.254;10.398;2023-02-10T03:54:14;2.30;99.90
13231;DHT22;6681;53.254;10.398;2023-02-10T03:56:39;2.70;99.90
13231;DHT22;6681;53.254;10.398;2023-02-10T03:59:05;3.20;99.90
13231;DHT22;6681;53.254;10.398;2023-02-10T04:01:31;2.60;99.90
13231;DHT22;6681;53.254;10.398;2023-02-10T04:03:57;2.60;99.90
13231;DHT22;6681;53.254;10.398;2023-02-10T04:06:23;2.60;99.90
13231;DHT22;6681;53.254;10.398;2023-02-10T04:08:48;2.70;99.90
13231;DHT22;6681;53.254;10.398;2023-02-10T04:11:14;2.60;99.90
13231;DHT22;6681;53.254;10.398;2023-02-10T04:13:40;2.50;99.90
13231;DHT22;6681;53.254;10.398;2023-02-10T04:16:12;2.60;99.90
13231;DHT22;6681;53.254;10.398;2023-02-10T04:18:38;2.50;99.90
13231;DHT22;6681;53.254;10.398;2023-02-10T04:21:06;2.60;99.90
13231;DHT22;6681;53.254;10.398;2023-02-10T04:23:32;2.50;99.90
13231;DHT22;6681;53.254;10.398;2023-02-10T04:25:58;2.50;99.90
13231;DHT22;6681;53.254;10.398;2023-02-10T04:28:23;2.50;99.90
13231;DHT22;6681;53.254;10.398;2023-02-10T04:30:57;3.20;99.90
13231;DHT22;6681;53.254;10.398;2023-02-10T04:33:24;2.50;99.90
13231;DHT22;6681;53.254;10.398;2023-02-10T04:35:53;2.80;99.90
13231;DHT22;6681;53.254;10.398;2023-02-10T04:38:20;2.50;99.90
13231;DHT22;6681;53.254;10.398;2023-02-10T04:40:46;2.50;99.90
13231;DHT22;6681;53.254;10.398;2023-02-10T04:43:12;2.50;99.90
13231;DHT22;6681;53.254;10.398;2023-02-10T04:45:38;2.50;99.90
13231;DHT22;6681;53.254;10.398;2023-02-10T04:48:04;2.90;99.90
13231;DHT22;6681;53.254;10.398;2023-02-10T04:50:30;2.50;99.90
13231;DHT22;6681;53.254;10.398;2023-02-10T04:52:56;2.50;99.90
13231;DHT22;6681;53.254;10.398;2023-02-10T04:55:22;2.50;99.90
13231;DHT22;6681;53.254;10.398;2023-02-10T04:57:47;2.50;99.90
13231;DHT22;6681;53.254;10.398;2023-02-10T05:00:14;3.10;99.90
13231;DHT22;6681;53.254;10.398;2023-02-10T05:02:40;2.60;99.90
13231;DHT22;6681;53.254;10.398;2023-02-10T05:05:06;2.70;99.90
13231;DHT22;6681;53.254;10.398;2023-02-10T05:07:32;2.60;99.90
13231;DHT22;6681;53.254;10.398;2023-02-10T05:09:58;2.80;99.90
13231;DHT22;6681;53.254;10.398;2023-02-10T05:12:23;2.90;99.90
13231;DHT22;6681;53.254;10.398;2023-02-10T05:14:49;2.60;99.90
13231;DHT22;6681;53.254;10.398;2023-02-10T05:17:17;2.60;99.90
13231;DHT22;6681;53.254;10.398;2023-02-10T05:19:43;2.70;99.90
13231;DHT22;6681;53.254;10.398;2023-02-10T05:22:08;2.70;99.90
13231;DHT22;6681;53.254;10.398;2023-02-10T05:24:34;3.10;99.90
13231;DHT22;6681;53.254;10.398;2023-02-10T05:27:00;2.80;99.90
13231;DHT22;6681;53.254;10.398;2023-02-10T05:29:25;2.80;99.90
13231;DHT22;6681;53.254;10.398;2023-02-10T05:31:51;2.80;99.90
13231;DHT22;6681;53.254;10.398;2023-02-10T05:34:17;4.20;99.90
13231;DHT22;6681;53.254;10.398;2023-02-10T05:36:45;2.80;99.90
13231;DHT22;6681;53.254;10.398;2023-02-10T05:39:11;2.80;99.90
13231;DHT22;6681;53.254;10.398;2023-02-10T05:41:50;2.90;99.90
13231;DHT22;6681;53.254;10.398;2023-02-10T05:44:15;2.90;99.90
13231;DHT22;6681;53.254;10.398;2023-02-10T05:46:41;2.90;99.90
13231;DHT22;6681;53.254;10.398;2023-02-10T05:49:07;2.90;99.90
13231;DHT22;6681;53.254;10.398;2023-02-10T05:51:32;3.70;99.90
13231;DHT22;6681;53.254;10.398;2023-02-10T05:53:58;2.90;99.90
13231;DHT22;6681;53.254;10.398;2023-02-10T05:56:23;2.90;99.90
13231;DHT22;6681;53.254;10.398;2023-02-10T05:58:49;2.90;99.90
13231;DHT22;6681;53.254;10.398;2023-02-10T06:01:15;2.90;99.90
13231;DHT22;6681;53.254;10.398;2023-02-10T06:03:40;2.90;99.90
13231;DHT22;6681;53.254;10.398;2023-02-10T06:06:09;2.90;99.90
13231;DHT22;6681;53.254;10.398;2023-02-10T06:08:34;2.90;99.90
13231;DHT22;6681;53.254;10.398;2023-02-10T06:11:00;2.90;99.90
13231;DHT22;6681;53.254;10.398;2023-02-10T06:13:26;2.80;99.90
13231;DHT22;6681;53.254;10.398;2023-02-10T06:15:52;2.90;99.90
13231;DHT22;6681;53.254;10.398;2023-02-10T06:18:17;2.80;99.90
13231;DHT22;6681;53.254;10.398;2023-02-10T06:20:45;2.80;99.90
13231;DHT22;6681;53.254;10.398;2023-02-10T06:23:11;2.80;99.90
13231;DHT22;6681;53.254;10.398;2023-02-10T06:25:41;2.80;99.90
13231;DHT22;6681;53.254;10.398;2023-02-10T06:28:07;2.80;99.90
13231;DHT22;6681;53.254;10.398;2023-02-10T06:30:33;2.80;99.90
13231;DHT22;6681;53.254;10.398;2023-02-10T06:32:58;2.80;99.90
13231;DHT22;6681;53.254;10.398;2023-02-10T06:35:24;2.80;99.90
13231;DHT22;6681;53.254;10.398;2023-02-10T06:37:49;3.30;99.90
13231;DHT22;6681;53.254;10.398;2023-02-10T06:40:15;2.80;99.90
13231;DHT22;6681;53.254;10.398;2023-02-10T06:42:41;2.80;99.90
13231;DHT22;6681;53.254;10.398;2023-02-10T06:45:07;2.80;99.90
13231;DHT22;6681;53.254;10.398;2023-02-10T06:47:34;2.80;99.90
13231;DHT22;6681;53.254;10.398;2023-02-10T06:50:01;2.90;99.90
13231;DHT22;6681;53.254;10.398;2023-02-10T06:52:26;2.90;99.90
13231;DHT22;6681;53.254;10.398;2023-02-10T06:54:52;2.80;99.90
13231;DHT22;6681;53.254;10.398;2023-02-10T06:57:18;2.90;99.90
13231;DHT22;6681;53.254;10.398;2023-02-10T06:59:44;2.90;99.90
13231;DHT22;6681;53.254;10.398;2023-02-10T07:02:13;2.90;99.90
13231;DHT22;6681;53.254;10.398;2023-02-10T07:04:38;2.90;99.90
13231;DHT22;6681;53.254;10.398;2023-02-10T07:07:05;2.90;99.90
13231;DHT22;6681;53.254;10.398;2023-02-10T07:09:31;2.90;99.90
13231;DHT22;6681;53.254;10.398;2023-02-10T07:11:57;2.90;99.90
13231;DHT22;6681;53.254;10.398;2023-02-10T07:14:23;2.90;99.90
13231;DHT22;6681;53.254;10.398;2023-02-10T07:16:49;2.90;99.90
13231;DHT22;6681;53.254;10.398;2023-02-10T07:19:15;2.90;99.90
13231;DHT22;6681;53.254;10.398;2023-02-10T07:21:41;3.00;99.90
13231;DHT22;6681;53.254;10.398;2023-02-10T07:24:07;3.00;99.90
13231;DHT22;6681;53.254;10.398;2023-02-10T07:26:33;3.00;99.90
13231;DHT22;6681;53.254;10.398;2023-02-10T07:28:59;3.00;99.90
13231;DHT22;6681;53.254;10.398;2023-02-10T07:31:24;3.20;99.90
13231;DHT22;6681;53.254;10.398;2023-02-10T07:33:50;3.40;99.90
13231;DHT22;6681;53.254;10.398;2023-02-10T07:36:15;3.10;99.90
13231;DHT22;6681;53.254;10.398;2023-02-10T07:38:41;3.00;99.90
13231;DHT22;6681;53.254;10.398;2023-02-10T07:41:07;3.60;99.90
13231;DHT22;6681;53.254;10.398;2023-02-10T07:43:34;3.00;99.90
13231;DHT22;6681;53.254;10.398;2023-02-10T07:45:59;3.20;99.90
13231;DHT22;6681;53.254;10.398;2023-02-10T07:48:25;3.80;99.90
13231;DHT22;6681;53.254;10.398;2023-02-10T07:50:52;3.20;99.90
13231;DHT22;6681;53.254;10.398;2023-02-10T07:53:19;3.10;99.90
13231;DHT22;6681;53.254;10.398;2023-02-10T07:55:44;3.10;99.90
13231;DHT22;6681;53.254;10.398;2023-02-10T07:58:10;3.00;99.90
13231;DHT22;6681;53.254;10.398;2023-02-10T08:00:36;3.00;99.90
13231;DHT22;6681;53.254;10.398;2023-02-10T08:03:02;3.10;99.90
13231;DHT22;6681;53.254;10.398;2023-02-10T08:05:28;3.10;99.90
13231;DHT22;6681;53.254;10.398;2023-02-10T08:07:54;3.10;99.90
13231;DHT22;6681;53.254;10.398;2023-02-10T08:10:20;3.20;99.90
13231;DHT22;6681;53.254;10.398;2023-02-10T08:12:46;3.20;99.90
13231;DHT22;6681;53.254;10.398;2023-02-10T08:15:12;3.20;99.90
13231;DHT22;6681;53.254;10.398;2023-02-10T08:17:38;3.20;99.90
13231;DHT22;6681;53.254;10.398;2023-02-10T08:20:05;3.20;99.90
13231;DHT22;6681;53.254;10.398;2023-02-10T08:22:31;3.20;99.90
13231;DHT22;6681;53.254;10.398;2023-02-10T08:24:58;3.20;99.90
13231;DHT22;6681;53.254;10.398;2023-02-10T08:27:24;3.20;99.90
13231;DHT22;6681;53.254;10.398;2023-02-10T08:29:50;3.20;99.90
13231;DHT22;6681;53.254;10.398;2023-02-10T08:32:15;3.30;99.90
13231;DHT22;6681;53.254;10.398;2023-02-10T08:34:45;3.40;99.90
13231;DHT22;6681;53.254;10.398;2023-02-10T08:37:11;3.30;99.90
13231;DHT22;6681;53.254;10.398;2023-02-10T08:39:37;3.30;99.90
13231;DHT22;6681;53.254;10.398;2023-02-10T08:42:03;3.30;99.90
13231;DHT22;6681;53.254;10.398;2023-02-10T08:44:29;3.30;99.90
13231;DHT22;6681;53.254;10.398;2023-02-10T08:46:54;3.40;99.90
13231;DHT22;6681;53.254;10.398;2023-02-10T08:49:20;3.60;99.90
13231;DHT22;6681;53.254;10.398;2023-02-10T08:51:47;3.40;99.90
13231;DHT22;6681;53.254;10.398;2023-02-10T08:54:13;3.70;99.90
13231;DHT22;6681;53.254;10.398;2023-02-10T08:56:38;3.50;99.90
13231;DHT22;6681;53.254;10.398;2023-02-10T08:59:05;3.40;99.90
13231;DHT22;6681;53.254;10.398;2023-02-10T09:01:31;3.50;99.90
13231;DHT22;6681;53.254;10.398;2023-02-10T09:03:57;3.50;99.90
13231;DHT22;6681;53.254;10.398;2023-02-10T09:06:43;3.60;99.90
13231;DHT22;6681;53.254;10.398;2023-02-10T09:09:09;3.60;99.90
13231;DHT22;6681;53.254;10.398;2023-02-10T09:11:38;3.70;99.90
13231;DHT22;6681;53.254;10.398;2023-02-10T09:14:04;3.70;99.90
13231;DHT22;6681;53.254;10.398;2023-02-10T09:16:30;3.70;99.90
13231;DHT22;6681;53.254;10.398;2023-02-10T09:18:56;3.70;99.90
13231;DHT22;6681;53.254;10.398;2023-02-10T09:21:22;3.40;99.90
13231;DHT22;6681;53.254;10.398;2023-02-10T09:23:49;3.80;99.90
13231;DHT22;6681;53.254;10.398;2023-02-10T09:26:15;3.80;99.90
13231;DHT22;6681;53.254;10.398;2023-02-10T09:28:41;3.80;99.90
13231;DHT22;6681;53.254;10.398;2023-02-10T09:31:08;3.90;99.90
13231;DHT22;6681;53.254;10.398;2023-02-10T09:33:34;3.90;99.90
13231;DHT22;6681;53.254;10.398;2023-02-10T09:36:02;3.90;99.90
13231;DHT22;6681;53.254;10.398;2023-02-10T09:38:28;3.90;99.90
13231;DHT22;6681;53.254;10.398;2023-02-10T09:44:18;3.80;99.90
13231;DHT22;6681;53.254;10.398;2023-02-10T09:46:47;3.90;99.90
13231;DHT22;6681;53.254;10.398;2023-02-10T09:52:20;3.90;99.90
13231;DHT22;6681;53.254;10.398;2023-02-10T09:54:49;3.90;99.90
13231;DHT22;6681;53.254;10.398;2023-02-10T09:57:18;4.00;99.90
13231;DHT22;6681;53.254;10.398;2023-02-10T09:59:47;4.00;99.90
13231;DHT22;6681;53.254;10.398;2023-02-10T10:02:27;4.00;99.90
13231;DHT22;6681;53.254;10.398;2023-02-10T10:04:54;4.00;99.90
13231;DHT22;6681;53.254;10.398;2023-02-10T10:07:35;4.00;99.90
13231;DHT22;6681;53.254;10.398;2023-02-10T10:12:29;4.00;99.90
13231;DHT22;6681;53.254;10.398;2023-02-10T10:14:55;4.40;99.90
13231;DHT22;6681;53.254;10.398;2023-02-10T10:23:21;4.20;99.90
13231;DHT22;6681;53.254;10.398;2023-02-10T10:28:57;4.20;99.90
13231;DHT22;6681;53.254;10.398;2023-02-10T10:31:34;4.20;99.90
13231;DHT22;6681;53.254;10.398;2023-02-10T10:34:08;4.20;99.90
13231;DHT22;6681;53.254;10.398;2023-02-10T10:36:44;4.40;99.90
13231;DHT22;6681;53.254;10.398;2023-02-10T10:39:14;4.30;99.90
13231;DHT22;6681;53.254;10.398;2023-02-10T10:41:42;4.70;99.90
13231;DHT22;6681;53.254;10.398;2023-02-10T10:44:11;4.40;99.90
13231;DHT22;6681;53.254;10.398;2023-02-10T10:46:43;4.40;99.90
13231;DHT22;6681;53.254;10.398;2023-02-10T10:49:09;4.40;99.90
13231;DHT22;6681;53.254;10.398;2023-02-10T10:51:35;4.50;99.90
13231;DHT22;6681;53.254;10.398;2023-02-10T10:54:02;4.50;99.90
13231;DHT22;6681;53.254;10.398;2023-02-10T10:56:38;4.60;99.90
13231;DHT22;6681;53.254;10.398;2023-02-10T11:01:42;4.80;99.90
13231;DHT22;6681;53.254;10.398;2023-02-10T11:04:22;4.80;99.90
13231;DHT22;6681;53.254;10.398;2023-02-10T11:06:53;4.90;99.90
13231;DHT22;6681;53.254;10.398;2023-02-10T11:09:35;5.00;99.90
13231;DHT22;6681;53.254;10.398;2023-02-10T11:12:05;5.10;99.90
13231;DHT22;6681;53.254;10.398;2023-02-10T11:14:38;5.20;99.90
13231;DHT22;6681;53.254;10.398;2023-02-10T11:17:24;5.30;99.90
13231;DHT22;6681;53.254;10.398;2023-02-10T11:19:56;5.50;99.90
13231;DHT22;6681;53.254;10.398;2023-02-10T11:22:22;5.60;99.90
13231;DHT22;6681;53.254;10.398;2023-02-10T11:24:53;5.70;99.90
13231;DHT22;6681;53.254;10.398;2023-02-10T11:27:19;5.70;99.90
13231;DHT22;6681;53.254;10.398;2023-02-10T11:29:56;5.80;99.90
13231;DHT22;6681;53.254;10.398;2023-02-10T11:32:28;5.90;99.90
13231;DHT22;6681;53.254;10.398;2023-02-10T11:34:56;6.10;99.90
13231;DHT22;6681;53.254;10.398;2023-02-10T11:37:25;6.00;99.90
13231;DHT22;6681;53.254;10.398;2023-02-10T11:39:52;6.00;99.90
13231;DHT22;6681;53.254;10.398;2023-02-10T11:42:25;6.10;99.90
13231;DHT22;6681;53.254;10.398;2023-02-10T11:45:00;6.20;99.90
13231;DHT22;6681;53.254;10.398;2023-02-10T11:47:31;6.20;99.90
13231;DHT22;6681;53.254;10.398;2023-02-10T11:49:57;6.20;99.90
13231;DHT22;6681;53.254;10.398;2023-02-10T11:52:27;6.30;99.90
13231;DHT22;6681;53.254;10.398;2023-02-10T11:54:54;6.40;99.90
13231;DHT22;6681;53.254;10.398;2023-02-10T12:00:35;6.50;99.90
13231;DHT22;6681;53.254;10.398;2023-02-10T12:09:05;6.80;99.90
13231;DHT22;6681;53.254;10.398;2023-02-10T12:37:34;6.90;99.90
13231;DHT22;6681;53.254;10.398;2023-02-10T12:53:51;7.10;99.90
13231;DHT22;6681;53.254;10.398;2023-02-10T12:56:33;7.10;99.90
13231;DHT22;6681;53.254;10.398;2023-02-10T12:59:08;7.10;99.90
13231;DHT22;6681;53.254;10.398;2023-02-10T13:01:44;7.00;99.90
13231;DHT22;6681;53.254;10.398;2023-02-10T13:04:26;7.00;99.90
13231;DHT22;6681;53.254;10.398;2023-02-10T13:07:17;7.20;99.90
13231;DHT22;6681;53.254;10.398;2023-02-10T13:09:49;6.90;99.90
13231;DHT22;6681;53.254;10.398;2023-02-10T13:12:21;6.90;99.90
13231;DHT22;6681;53.254;10.398;2023-02-10T13:14:49;6.90;99.90
13231;DHT22;6681;53.254;10.398;2023-02-10T13:17:16;6.90;99.90
13231;DHT22;6681;53.254;10.398;2023-02-10T13:20:00;6.90;99.90
13231;DHT22;6681;53.254;10.398;2023-02-10T13:22:49;6.90;99.90
13231;DHT22;6681;53.254;10.398;2023-02-10T13:31:08;6.80;99.90
13231;DHT22;6681;53.254;10.398;2023-02-10T13:34:19;6.70;99.90
13231;DHT22;6681;53.254;10.398;2023-02-10T13:36:50;6.70;99.90
13231;DHT22;6681;53.254;10.398;2023-02-10T13:39:20;6.60;99.90
13231;DHT22;6681;53.254;10.398;2023-02-10T13:41:49;6.60;99.90
13231;DHT22;6681;53.254;10.398;2023-02-10T13:46:54;6.60;99.90
13231;DHT22;6681;53.254;10.398;2023-02-10T13:49:21;6.70;99.90
13231;DHT22;6681;53.254;10.398;2023-02-10T13:51:47;6.80;99.90
13231;DHT22;6681;53.254;10.398;2023-02-10T13:54:29;6.80;99.90
13231;DHT22;6681;53.254;10.398;2023-02-10T13:56:57;6.90;99.90
13231;DHT22;6681;53.254;10.398;2023-02-10T13:59:38;7.00;99.90
13231;DHT22;6681;53.254;10.398;2023-02-10T14:02:30;7.10;99.90
13231;DHT22;6681;53.254;10.398;2023-02-10T14:04:56;7.10;99.90
13231;DHT22;6681;53.254;10.398;2023-02-10T14:15:27;7.10;99.90
13231;DHT22;6681;53.254;10.398;2023-02-10T14:17:58;7.00;99.90
13231;DHT22;6681;53.254;10.398;2023-02-10T14:20:31;7.00;99.90
13231;DHT22;6681;53.254;10.398;2023-02-10T14:22:58;7.00;99.90
13231;DHT22;6681;53.254;10.398;2023-02-10T14:25:38;6.90;99.90
13231;DHT22;6681;53.254;10.398;2023-02-10T14:28:13;6.90;99.90
13231;DHT22;6681;53.254;10.398;2023-02-10T14:30:45;6.90;99.90
13231;DHT22;6681;53.254;10.398;2023-02-10T14:35:49;6.80;99.90
13231;DHT22;6681;53.254;10.398;2023-02-10T14:38:27;6.70;99.90
13231;DHT22;6681;53.254;10.398;2023-02-10T14:40:54;6.80;99.90
13231;DHT22;6681;53.254;10.398;2023-02-10T14:43:30;6.70;99.90
13231;DHT22;6681;53.254;10.398;2023-02-10T14:45:58;6.70;99.90
13231;DHT22;6681;53.254;10.398;2023-02-10T14:48:24;6.70;99.90
13231;DHT22;6681;53.254;10.398;2023-02-10T14:51:05;7.10;99.90
13231;DHT22;6681;53.254;10.398;2023-02-10T14:53:33;6.70;99.90
13231;DHT22;6681;53.254;10.398;2023-02-10T14:56:00;6.60;99.90
13231;DHT22;6681;53.254;10.398;2023-02-10T14:58:26;6.60;99.90
13231;DHT22;6681;53.254;10.398;2023-02-10T15:04:14;6.50;99.90
13231;DHT22;6681;53.254;10.398;2023-02-10T15:06:44;6.50;99.90
13231;DHT22;6681;53.254;10.398;2023-02-10T15:09:46;6.50;99.90
13231;DHT22;6681;53.254;10.398;2023-02-10T15:12:07;6.50;99.90
13231;DHT22;6681;53.254;10.398;2023-02-10T15:15:25;6.60;99.90
13231;DHT22;6681;53.254;10.398;2023-02-10T15:17:46;6.50;99.90
13231;DHT22;6681;53.254;10.398;2023-02-10T15:33:19;6.30;99.90
13231;DHT22;6681;53.254;10.398;2023-02-10T15:36:19;6.30;99.90
13231;DHT22;6681;53.254;10.398;2023-02-10T15:38:53;6.30;99.90
13231;DHT22;6681;53.254;10.398;2023-02-10T15:41:36;6.30;99.90
13231;DHT22;6681;53.254;10.398;2023-02-10T15:47:24;6.30;99.90
13231;DHT22;6681;53.254;10.398;2023-02-10T15:49:55;6.20;99.90
13231;DHT22;6681;53.254;10.398;2023-02-10T15:52:34;6.20;99.90
13231;DHT22;6681;53.254;10.398;2023-02-10T15:55:10;6.20;99.90
13231;DHT22;6681;53.254;10.398;2023-02-10T15:57:38;6.20;99.90
13231;DHT22;6681;53.254;10.398;2023-02-10T16:00:10;6.10;99.90
13231;DHT22;6681;53.254;10.398;2023-02-10T16:02:36;6.10;99.90
13231;DHT22;6681;53.254;10.398;2023-02-10T16:05:02;6.70;99.90
13231;DHT22;6681;53.254;10.398;2023-02-10T16:07:28;6.10;99.90
13231;DHT22;6681;53.254;10.398;2023-02-10T16:09:55;6.10;99.90
13231;DHT22;6681;53.254;10.398;2023-02-10T16:12:21;6.20;99.90
13231;DHT22;6681;53.254;10.398;2023-02-10T16:14:48;6.00;99.90
13231;DHT22;6681;53.254;10.398;2023-02-10T16:17:25;6.20;99.90
13231;DHT22;6681;53.254;10.398;2023-02-10T16:19:51;5.90;99.90
13231;DHT22;6681;53.254;10.398;2023-02-10T16:22:18;5.90;99.90
13231;DHT22;6681;53.254;10.398;2023-02-10T16:24:43;5.90;99.90
13231;DHT22;6681;53.254;10.398;2023-02-10T16:27:11;5.90;99.90
13231;DHT22;6681;53.254;10.398;2023-02-10T16:29:36;5.90;99.90
13231;DHT22;6681;53.254;10.398;2023-02-10T16:32:04;5.90;99.90
13231;DHT22;6681;53.254;10.398;2023-02-10T16:34:29;5.90;99.90
13231;DHT22;6681;53.254;10.398;2023-02-10T16:36:58;5.90;99.90
13231;DHT22;6681;53.254;10.398;2023-02-10T16:39:24;5.80;99.90
13231;DHT22;6681;53.254;10.398;2023-02-10T16:41:51;5.80;99.90
13231;DHT22;6681;53.254;10.398;2023-02-10T16:44:17;5.80;99.90
13231;DHT22;6681;53.254;10.398;2023-02-10T16:46:44;5.80;99.90
13231;DHT22;6681;53.254;10.398;2023-02-10T16:49:13;5.80;99.90
13231;DHT22;6681;53.254;10.398;2023-02-10T16:51:39;5.80;99.90
13231;DHT22;6681;53.254;10.398;2023-02-10T16:54:06;5.70;99.90
13231;DHT22;6681;53.254;10.398;2023-02-10T16:56:35;5.80;99.90
13231;DHT22;6681;53.254;10.398;2023-02-10T16:59:03;5.70;99.90
13231;DHT22;6681;53.254;10.398;2023-02-10T17:01:29;5.70;99.90
13231;DHT22;6681;53.254;10.398;2023-02-10T17:03:56;6.20;99.90
13231;DHT22;6681;53.254;10.398;2023-02-10T17:06:22;5.70;99.90
13231;DHT22;6681;53.254;10.398;2023-02-10T17:08:48;5.70;99.90
13231;DHT22;6681;53.254;10.398;2023-02-10T17:11:14;5.70;99.90
13231;DHT22;6681;53.254;10.398;2023-02-10T17:13:40;5.70;99.90
13231;DHT22;6681;53.254;10.398;2023-02-10T17:16:17;5.70;99.90
13231;DHT22;6681;53.254;10.398;2023-02-10T17:18:45;5.70;99.90
13231;DHT22;6681;53.254;10.398;2023-02-10T17:21:10;5.60;99.90
13231;DHT22;6681;53.254;10.398;2023-02-10T17:23:36;5.60;99.90
13231;DHT22;6681;53.254;10.398;2023-02-10T17:26:01;5.60;99.90
13231;DHT22;6681;53.254;10.398;2023-02-10T17:28:27;5.60;99.90
13231;DHT22;6681;53.254;10.398;2023-02-10T17:30:53;5.60;99.90
13231;DHT22;6681;53.254;10.398;2023-02-10T17:33:26;5.50;99.90
13231;DHT22;6681;53.254;10.398;2023-02-10T17:35:53;5.50;99.90
13231;DHT22;6681;53.254;10.398;2023-02-10T17:38:18;5.50;99.90
13231;DHT22;6681;53.254;10.398;2023-02-10T17:41:09;5.50;99.90
13231;DHT22;6681;53.254;10.398;2023-02-10T17:43:35;5.40;99.90
13231;DHT22;6681;53.254;10.398;2023-02-10T17:46:01;5.40;99.90
13231;DHT22;6681;53.254;10.398;2023-02-10T17:48:26;5.30;99.90
13231;DHT22;6681;53.254;10.398;2023-02-10T17:50:52;5.30;99.90
13231;DHT22;6681;53.254;10.398;2023-02-10T17:53:25;5.20;99.90
13231;DHT22;6681;53.254;10.398;2023-02-10T17:55:50;5.20;99.90
13231;DHT22;6681;53.254;10.398;2023-02-10T17:58:16;5.20;99.90
13231;DHT22;6681;53.254;10.398;2023-02-10T18:00:42;5.30;99.90
13231;DHT22;6681;53.254;10.398;2023-02-10T18:03:08;5.30;99.90
13231;DHT22;6681;53.254;10.398;2023-02-10T18:05:33;5.10;99.90
13231;DHT22;6681;53.254;10.398;2023-02-10T18:08:00;5.10;99.90